Strona główna
METAR-TAF:

METAR-TAF

Lotnisko :

Port lotniczy Ndżamena

Ndżamena, Czad

Szerokość geograficzna: 12-08N, Długość geograficzna: 015-02E, wysokość: 295 m

Aktualna obserwacja pogody

Raport powstał 52 minut temu, godzina 15:00 UTC
Wiatr 7 kt od zachód
Temperatura 33°C
Wilgotność 56%
Ciśnienie 1009 hPa
Widzialność 10 km lub więcej
Rozproszone chmury na wysokości 4000 ft

METAR: FTTJ 161500Z 27007KT 9999 SCT040 33/23 Q1009 NOSIG

czas: 16:52 (15:52 UTC)

Prognoza

Raport powstał 4 godziny i 52 minut temu, godzina 11:00 UTC
Prognoza ważna od 16 godzina 12 UTC do 17 godzina 18 UTC
Wiatr 8 kt od południowy zachód
Widzialność 10 km lub więcej
Mało chmury na wysokości 3000 ft
Prawdopodobieństwo 30% :
Przejściowo
od 16 godzina 15 UTC do 16 godzina 20 UTC
burza
Przejściowo
od 17 godzina 02 UTC do 17 godzina 10 UTC
Widzialność: 2500 m
burza, deszcz

TAF: FTTJ 161100Z 1612/1718 22008KT 9999 FEW030 PROB30 TEMPO 1615/1620 TS TEMPO 1702/1710 2500 TSRA

Obserwacja i prognoza pogody dla ponad 4000 lotnisk (raport METAR i TAF).

Dostępne stacje oznaczono żółtymi i czerwonymi punktami na mapie.

Najedź kursorem aby zobaczyć nazwę stacji.

Kliknij aby zobaczyć obserwacje i prognozy pogody.

Aby zmienić mapę: kliknij na zielony przycisk z czarnym krzyżykiem, aby powiększyć; na zielony przycisk z myślnikiem, aby pomniejszyć; na zielone strzałki, aby przejść do map sąsiednich.


METAR-TAF: